sensor_id;sensor_type;location;lat;lon;timestamp;P1;durP1;ratioP1;P2;durP2;ratioP2
51971;SDS011;37991;49.662;10.060;2022-10-16T00:01:36;4.13;;;0.60;;
51971;SDS011;37991;49.662;10.060;2022-10-16T00:04:01;4.32;;;0.93;;
51971;SDS011;37991;49.662;10.060;2022-10-16T00:06:28;3.80;;;0.70;;
51971;SDS011;37991;49.662;10.060;2022-10-16T00:08:54;0.70;;;0.60;;
51971;SDS011;37991;49.662;10.060;2022-10-16T00:11:25;3.05;;;0.80;;
51971;SDS011;37991;49.662;10.060;2022-10-16T00:13:55;3.00;;;1.00;;
51971;SDS011;37991;49.662;10.060;2022-10-16T00:16:22;4.28;;;0.85;;
51971;SDS011;37991;49.662;10.060;2022-10-16T00:18:48;1.77;;;0.68;;
51971;SDS011;37991;49.662;10.060;2022-10-16T00:21:14;1.50;;;0.85;;
51971;SDS011;37991;49.662;10.060;2022-10-16T00:23:41;1.92;;;0.70;;
51971;SDS011;37991;49.662;10.060;2022-10-16T00:26:08;3.08;;;0.85;;
51971;SDS011;37991;49.662;10.060;2022-10-16T00:28:36;5.35;;;0.73;;
51971;SDS011;37991;49.662;10.060;2022-10-16T00:31:05;5.10;;;0.90;;
51971;SDS011;37991;49.662;10.060;2022-10-16T00:33:32;3.67;;;1.00;;
51971;SDS011;37991;49.662;10.060;2022-10-16T00:35:59;0.80;;;0.70;;
51971;SDS011;37991;49.662;10.060;2022-10-16T00:38:25;1.60;;;1.02;;
51971;SDS011;37991;49.662;10.060;2022-10-16T00:40:51;8.75;;;1.02;;
51971;SDS011;37991;49.662;10.060;2022-10-16T00:43:33;4.97;;;1.08;;
51971;SDS011;37991;49.662;10.060;2022-10-16T00:46:16;2.08;;;0.88;;
51971;SDS011;37991;49.662;10.060;2022-10-16T00:51:26;4.22;;;0.82;;
51971;SDS011;37991;49.662;10.060;2022-10-16T00:53:55;4.28;;;1.20;;
51971;SDS011;37991;49.662;10.060;2022-10-16T00:56:21;3.00;;;1.45;;
51971;SDS011;37991;49.662;10.060;2022-10-16T00:58:47;1.35;;;0.80;;
51971;SDS011;37991;49.662;10.060;2022-10-16T01:01:12;1.23;;;0.95;;
51971;SDS011;37991;49.662;10.060;2022-10-16T01:03:38;3.40;;;1.00;;
51971;SDS011;37991;49.662;10.060;2022-10-16T01:08:55;2.65;;;0.95;;
51971;SDS011;37991;49.662;10.060;2022-10-16T01:11:27;6.70;;;1.13;;
51971;SDS011;37991;49.662;10.060;2022-10-16T01:14:00;1.02;;;0.75;;
51971;SDS011;37991;49.662;10.060;2022-10-16T01:16:35;3.05;;;0.80;;
51971;SDS011;37991;49.662;10.060;2022-10-16T01:19:09;0.95;;;0.85;;
51971;SDS011;37991;49.662;10.060;2022-10-16T01:21:40;3.17;;;0.80;;
51971;SDS011;37991;49.662;10.060;2022-10-16T01:24:24;7.05;;;1.00;;
51971;SDS011;37991;49.662;10.060;2022-10-16T01:27:07;1.20;;;0.70;;
51971;SDS011;37991;49.662;10.060;2022-10-16T01:29:53;0.75;;;0.60;;
51971;SDS011;37991;49.662;10.060;2022-10-16T01:32:28;0.45;;;0.45;;
51971;SDS011;37991;49.662;10.060;2022-10-16T01:35:02;2.08;;;0.70;;
51971;SDS011;37991;49.662;10.060;2022-10-16T01:37:47;4.90;;;0.85;;
51971;SDS011;37991;49.662;10.060;2022-10-16T01:40:17;2.88;;;0.90;;
51971;SDS011;37991;49.662;10.060;2022-10-16T01:42:51;2.17;;;0.70;;
51971;SDS011;37991;49.662;10.060;2022-10-16T01:45:19;1.13;;;0.63;;
51971;SDS011;37991;49.662;10.060;2022-10-16T01:47:46;0.75;;;0.73;;
51971;SDS011;37991;49.662;10.060;2022-10-16T01:50:14;1.55;;;0.75;;
51971;SDS011;37991;49.662;10.060;2022-10-16T01:52:43;3.00;;;0.75;;
51971;SDS011;37991;49.662;10.060;2022-10-16T01:55:13;2.97;;;0.90;;
51971;SDS011;37991;49.662;10.060;2022-10-16T01:57:41;1.33;;;1.23;;
51971;SDS011;37991;49.662;10.060;2022-10-16T02:00:12;3.30;;;1.88;;
51971;SDS011;37991;49.662;10.060;2022-10-16T02:02:42;2.92;;;1.67;;
51971;SDS011;37991;49.662;10.060;2022-10-16T02:05:12;8.73;;;3.17;;
51971;SDS011;37991;49.662;10.060;2022-10-16T02:07:43;2.95;;;2.55;;
51971;SDS011;37991;49.662;10.060;2022-10-16T02:10:09;2.80;;;2.55;;
51971;SDS011;37991;49.662;10.060;2022-10-16T02:12:36;3.58;;;2.63;;
51971;SDS011;37991;49.662;10.060;2022-10-16T02:15:06;3.22;;;2.35;;
51971;SDS011;37991;49.662;10.060;2022-10-16T02:17:32;2.35;;;2.15;;
51971;SDS011;37991;49.662;10.060;2022-10-16T02:19:57;3.30;;;2.13;;
51971;SDS011;37991;49.662;10.060;2022-10-16T02:22:26;3.42;;;1.77;;
51971;SDS011;37991;49.662;10.060;2022-10-16T02:27:57;6.50;;;1.70;;
51971;SDS011;37991;49.662;10.060;2022-10-16T02:30:36;1.92;;;1.75;;
51971;SDS011;37991;49.662;10.060;2022-10-16T02:33:07;8.45;;;1.77;;
51971;SDS011;37991;49.662;10.060;2022-10-16T02:35:34;2.03;;;1.30;;
51971;SDS011;37991;49.662;10.060;2022-10-16T02:38:01;2.25;;;1.38;;
51971;SDS011;37991;49.662;10.060;2022-10-16T02:40:27;4.40;;;1.50;;
51971;SDS011;37991;49.662;10.060;2022-10-16T02:42:54;2.33;;;1.20;;
51971;SDS011;37991;49.662;10.060;2022-10-16T02:45:20;5.80;;;1.63;;
51971;SDS011;37991;49.662;10.060;2022-10-16T02:47:47;5.43;;;1.40;;
51971;SDS011;37991;49.662;10.060;2022-10-16T02:50:13;1.80;;;1.25;;
51971;SDS011;37991;49.662;10.060;2022-10-16T02:52:39;1.67;;;1.23;;
51971;SDS011;37991;49.662;10.060;2022-10-16T02:55:04;2.08;;;1.20;;
51971;SDS011;37991;49.662;10.060;2022-10-16T02:57:30;1.45;;;1.23;;
51971;SDS011;37991;49.662;10.060;2022-10-16T02:59:56;9.05;;;1.40;;
51971;SDS011;37991;49.662;10.060;2022-10-16T03:02:21;4.47;;;1.08;;
51971;SDS011;37991;49.662;10.060;2022-10-16T03:04:46;3.45;;;0.80;;
51971;SDS011;37991;49.662;10.060;2022-10-16T03:07:12;4.28;;;1.02;;
51971;SDS011;37991;49.662;10.060;2022-10-16T03:09:37;2.08;;;1.35;;
51971;SDS011;37991;49.662;10.060;2022-10-16T03:12:03;1.98;;;0.80;;
51971;SDS011;37991;49.662;10.060;2022-10-16T03:14:28;1.73;;;0.93;;
51971;SDS011;37991;49.662;10.060;2022-10-16T03:16:54;7.03;;;1.20;;
51971;SDS011;37991;49.662;10.060;2022-10-16T03:19:19;4.25;;;1.17;;
51971;SDS011;37991;49.662;10.060;2022-10-16T03:21:44;3.42;;;0.70;;
51971;SDS011;37991;49.662;10.060;2022-10-16T03:24:10;1.50;;;1.00;;
51971;SDS011;37991;49.662;10.060;2022-10-16T03:26:35;5.85;;;0.90;;
51971;SDS011;37991;49.662;10.060;2022-10-16T03:29:01;0.98;;;0.80;;
51971;SDS011;37991;49.662;10.060;2022-10-16T03:31:28;2.05;;;0.70;;
51971;SDS011;37991;49.662;10.060;2022-10-16T03:33:54;6.28;;;1.08;;
51971;SDS011;37991;49.662;10.060;2022-10-16T03:36:20;1.45;;;0.80;;
51971;SDS011;37991;49.662;10.060;2022-10-16T03:38:45;4.22;;;1.10;;
51971;SDS011;37991;49.662;10.060;2022-10-16T03:41:10;1.30;;;0.73;;
51971;SDS011;37991;49.662;10.060;2022-10-16T03:43:36;1.48;;;1.00;;
51971;SDS011;37991;49.662;10.060;2022-10-16T03:46:01;1.77;;;1.10;;
51971;SDS011;37991;49.662;10.060;2022-10-16T03:48:27;1.55;;;1.00;;
51971;SDS011;37991;49.662;10.060;2022-10-16T03:50:52;3.80;;;0.85;;
51971;SDS011;37991;49.662;10.060;2022-10-16T03:53:17;5.35;;;1.17;;
51971;SDS011;37991;49.662;10.060;2022-10-16T03:55:43;1.15;;;0.80;;
51971;SDS011;37991;49.662;10.060;2022-10-16T03:58:10;4.57;;;1.00;;
51971;SDS011;37991;49.662;10.060;2022-10-16T04:00:35;5.45;;;1.00;;
51971;SDS011;37991;49.662;10.060;2022-10-16T04:03:04;0.90;;;0.70;;
51971;SDS011;37991;49.662;10.060;2022-10-16T04:05:29;0.75;;;0.75;;
51971;SDS011;37991;49.662;10.060;2022-10-16T04:07:55;3.42;;;1.00;;
51971;SDS011;37991;49.662;10.060;2022-10-16T04:10:20;3.60;;;1.10;;
51971;SDS011;37991;49.662;10.060;2022-10-16T04:12:45;3.38;;;0.70;;
51971;SDS011;37991;49.662;10.060;2022-10-16T04:15:11;1.10;;;0.82;;
51971;SDS011;37991;49.662;10.060;2022-10-16T04:17:36;5.00;;;0.80;;
51971;SDS011;37991;49.662;10.060;2022-10-16T04:20:02;2.38;;;0.80;;
51971;SDS011;37991;49.662;10.060;2022-10-16T04:22:28;3.83;;;1.00;;
51971;SDS011;37991;49.662;10.060;2022-10-16T04:24:53;2.30;;;1.00;;
51971;SDS011;37991;49.662;10.060;2022-10-16T04:27:19;4.32;;;1.50;;
51971;SDS011;37991;49.662;10.060;2022-10-16T04:29:44;9.20;;;1.42;;
51971;SDS011;37991;49.662;10.060;2022-10-16T04:32:09;1.63;;;1.42;;
51971;SDS011;37991;49.662;10.060;2022-10-16T04:34:35;4.75;;;1.88;;
51971;SDS011;37991;49.662;10.060;2022-10-16T04:37:01;2.80;;;1.70;;
51971;SDS011;37991;49.662;10.060;2022-10-16T04:39:26;2.70;;;1.77;;
51971;SDS011;37991;49.662;10.060;2022-10-16T04:41:51;2.72;;;2.05;;
51971;SDS011;37991;49.662;10.060;2022-10-16T04:44:17;3.63;;;1.83;;
51971;SDS011;37991;49.662;10.060;2022-10-16T04:46:42;6.80;;;1.75;;
51971;SDS011;37991;49.662;10.060;2022-10-16T04:49:07;5.13;;;1.50;;
51971;SDS011;37991;49.662;10.060;2022-10-16T04:51:33;2.00;;;1.52;;
51971;SDS011;37991;49.662;10.060;2022-10-16T04:53:58;2.42;;;1.27;;
51971;SDS011;37991;49.662;10.060;2022-10-16T04:56:24;12.00;;;1.40;;
51971;SDS011;37991;49.662;10.060;2022-10-16T04:58:49;1.63;;;1.50;;
51971;SDS011;37991;49.662;10.060;2022-10-16T05:01:15;3.40;;;2.40;;
51971;SDS011;37991;49.662;10.060;2022-10-16T05:03:40;14.95;;;2.05;;
51971;SDS011;37991;49.662;10.060;2022-10-16T05:06:06;2.25;;;1.40;;
51971;SDS011;37991;49.662;10.060;2022-10-16T05:08:32;1.85;;;1.30;;
51971;SDS011;37991;49.662;10.060;2022-10-16T05:10:57;4.00;;;2.30;;
51971;SDS011;37991;49.662;10.060;2022-10-16T05:13:23;4.88;;;2.50;;
51971;SDS011;37991;49.662;10.060;2022-10-16T05:15:48;11.38;;;2.50;;
51971;SDS011;37991;49.662;10.060;2022-10-16T05:18:15;4.28;;;2.67;;
51971;SDS011;37991;49.662;10.060;2022-10-16T05:20:41;5.13;;;2.15;;
51971;SDS011;37991;49.662;10.060;2022-10-16T05:23:06;7.78;;;1.88;;
51971;SDS011;37991;49.662;10.060;2022-10-16T05:25:32;9.07;;;1.80;;
51971;SDS011;37991;49.662;10.060;2022-10-16T05:27:57;2.72;;;1.45;;
51971;SDS011;37991;49.662;10.060;2022-10-16T05:30:23;6.93;;;1.50;;
51971;SDS011;37991;49.662;10.060;2022-10-16T05:32:49;13.48;;;1.73;;
51971;SDS011;37991;49.662;10.060;2022-10-16T05:35:15;4.70;;;1.05;;
51971;SDS011;37991;49.662;10.060;2022-10-16T05:37:43;1.50;;;0.80;;
51971;SDS011;37991;49.662;10.060;2022-10-16T05:40:09;4.10;;;1.10;;
51971;SDS011;37991;49.662;10.060;2022-10-16T05:42:35;1.77;;;1.00;;
51971;SDS011;37991;49.662;10.060;2022-10-16T05:45:00;3.63;;;1.08;;
51971;SDS011;37991;49.662;10.060;2022-10-16T05:47:26;4.00;;;0.90;;
51971;SDS011;37991;49.662;10.060;2022-10-16T05:49:52;1.67;;;1.02;;
51971;SDS011;37991;49.662;10.060;2022-10-16T05:52:18;6.05;;;1.13;;
51971;SDS011;37991;49.662;10.060;2022-10-16T05:54:43;1.55;;;1.10;;
51971;SDS011;37991;49.662;10.060;2022-10-16T05:57:09;5.68;;;1.00;;
51971;SDS011;37991;49.662;10.060;2022-10-16T05:59:34;4.07;;;0.93;;
51971;SDS011;37991;49.662;10.060;2022-10-16T06:01:59;3.08;;;1.08;;
51971;SDS011;37991;49.662;10.060;2022-10-16T06:04:25;2.58;;;0.98;;
51971;SDS011;37991;49.662;10.060;2022-10-16T06:06:50;10.38;;;1.33;;
51971;SDS011;37991;49.662;10.060;2022-10-16T06:09:16;2.72;;;0.80;;
51971;SDS011;37991;49.662;10.060;2022-10-16T06:11:41;2.35;;;0.90;;
51971;SDS011;37991;49.662;10.060;2022-10-16T06:14:07;3.05;;;1.20;;
51971;SDS011;37991;49.662;10.060;2022-10-16T06:16:34;2.72;;;1.35;;
51971;SDS011;37991;49.662;10.060;2022-10-16T06:19:01;5.85;;;1.73;;
51971;SDS011;37991;49.662;10.060;2022-10-16T06:21:27;5.57;;;1.90;;
51971;SDS011;37991;49.662;10.060;2022-10-16T06:23:54;5.30;;;1.15;;
51971;SDS011;37991;49.662;10.060;2022-10-16T06:26:22;2.78;;;1.48;;
51971;SDS011;37991;49.662;10.060;2022-10-16T06:28:49;2.65;;;0.95;;
51971;SDS011;37991;49.662;10.060;2022-10-16T06:31:15;6.20;;;1.33;;
51971;SDS011;37991;49.662;10.060;2022-10-16T06:33:41;1.40;;;1.20;;
51971;SDS011;37991;49.662;10.060;2022-10-16T06:36:15;1.65;;;1.17;;
51971;SDS011;37991;49.662;10.060;2022-10-16T06:38:42;1.17;;;0.82;;
51971;SDS011;37991;49.662;10.060;2022-10-16T06:41:09;1.00;;;0.90;;
51971;SDS011;37991;49.662;10.060;2022-10-16T06:43:37;4.00;;;1.83;;
51971;SDS011;37991;49.662;10.060;2022-10-16T06:46:03;2.78;;;1.00;;
51971;SDS011;37991;49.662;10.060;2022-10-16T06:48:29;2.08;;;1.20;;
51971;SDS011;37991;49.662;10.060;2022-10-16T06:50:59;1.17;;;1.08;;
51971;SDS011;37991;49.662;10.060;2022-10-16T06:53:34;1.80;;;1.10;;
51971;SDS011;37991;49.662;10.060;2022-10-16T06:56:10;3.33;;;1.13;;
51971;SDS011;37991;49.662;10.060;2022-10-16T06:58:37;1.30;;;1.00;;
51971;SDS011;37991;49.662;10.060;2022-10-16T07:01:03;1.00;;;0.88;;
51971;SDS011;37991;49.662;10.060;2022-10-16T07:03:30;0.95;;;0.88;;
51971;SDS011;37991;49.662;10.060;2022-10-16T07:05:56;4.53;;;1.00;;
51971;SDS011;37991;49.662;10.060;2022-10-16T07:08:22;3.88;;;1.10;;
51971;SDS011;37991;49.662;10.060;2022-10-16T07:10:47;1.58;;;1.17;;
51971;SDS011;37991;49.662;10.060;2022-10-16T07:13:13;1.77;;;1.25;;
51971;SDS011;37991;49.662;10.060;2022-10-16T07:15:39;0.70;;;0.70;;
51971;SDS011;37991;49.662;10.060;2022-10-16T07:18:05;1.48;;;1.13;;
51971;SDS011;37991;49.662;10.060;2022-10-16T07:20:30;2.65;;;0.90;;
51971;SDS011;37991;49.662;10.060;2022-10-16T07:22:56;4.68;;;1.15;;
51971;SDS011;37991;49.662;10.060;2022-10-16T07:25:21;3.67;;;2.28;;
51971;SDS011;37991;49.662;10.060;2022-10-16T07:27:46;4.90;;;2.40;;
51971;SDS011;37991;49.662;10.060;2022-10-16T07:30:12;7.20;;;1.50;;
51971;SDS011;37991;49.662;10.060;2022-10-16T07:32:37;2.50;;;0.98;;
51971;SDS011;37991;49.662;10.060;2022-10-16T07:35:03;4.57;;;1.38;;
51971;SDS011;37991;49.662;10.060;2022-10-16T07:37:29;2.65;;;1.88;;
51971;SDS011;37991;49.662;10.060;2022-10-16T07:39:54;4.60;;;2.63;;
51971;SDS011;37991;49.662;10.060;2022-10-16T07:42:20;4.13;;;2.20;;
51971;SDS011;37991;49.662;10.060;2022-10-16T07:44:48;6.88;;;2.10;;
51971;SDS011;37991;49.662;10.060;2022-10-16T07:47:13;14.32;;;2.33;;
51971;SDS011;37991;49.662;10.060;2022-10-16T07:49:39;8.10;;;2.15;;
51971;SDS011;37991;49.662;10.060;2022-10-16T07:52:05;4.30;;;2.13;;
51971;SDS011;37991;49.662;10.060;2022-10-16T07:54:30;2.75;;;1.67;;
51971;SDS011;37991;49.662;10.060;2022-10-16T07:56:55;3.58;;;1.50;;
51971;SDS011;37991;49.662;10.060;2022-10-16T07:59:21;3.50;;;1.20;;
51971;SDS011;37991;49.662;10.060;2022-10-16T08:01:46;1.95;;;1.45;;
51971;SDS011;37991;49.662;10.060;2022-10-16T08:04:11;3.97;;;1.55;;
51971;SDS011;37991;49.662;10.060;2022-10-16T08:06:38;3.85;;;1.30;;
51971;SDS011;37991;49.662;10.060;2022-10-16T08:09:08;1.70;;;1.20;;
51971;SDS011;37991;49.662;10.060;2022-10-16T08:11:34;1.60;;;1.20;;
51971;SDS011;37991;49.662;10.060;2022-10-16T08:13:59;2.55;;;1.42;;
51971;SDS011;37991;49.662;10.060;2022-10-16T08:16:25;2.20;;;1.40;;
51971;SDS011;37991;49.662;10.060;2022-10-16T08:18:50;3.75;;;1.33;;
51971;SDS011;37991;49.662;10.060;2022-10-16T08:21:21;2.53;;;1.60;;
51971;SDS011;37991;49.662;10.060;2022-10-16T08:23:49;3.35;;;1.60;;
51971;SDS011;37991;49.662;10.060;2022-10-16T08:26:15;1.13;;;1.02;;
51971;SDS011;37991;49.662;10.060;2022-10-16T08:28:40;3.08;;;1.60;;
51971;SDS011;37991;49.662;10.060;2022-10-16T08:31:06;4.18;;;1.40;;
51971;SDS011;37991;49.662;10.060;2022-10-16T08:33:36;4.00;;;1.92;;
51971;SDS011;37991;49.662;10.060;2022-10-16T08:36:03;3.10;;;1.40;;
51971;SDS011;37991;49.662;10.060;2022-10-16T08:38:29;3.72;;;2.03;;
51971;SDS011;37991;49.662;10.060;2022-10-16T08:41:18;4.40;;;1.80;;
51971;SDS011;37991;49.662;10.060;2022-10-16T08:49:12;3.22;;;1.90;;
51971;SDS011;37991;49.662;10.060;2022-10-16T08:51:39;2.78;;;2.03;;
51971;SDS011;37991;49.662;10.060;2022-10-16T08:54:18;5.32;;;2.03;;
51971;SDS011;37991;49.662;10.060;2022-10-16T08:56:46;2.75;;;1.98;;
51971;SDS011;37991;49.662;10.060;2022-10-16T08:59:11;2.20;;;1.55;;
51971;SDS011;37991;49.662;10.060;2022-10-16T09:01:41;6.97;;;1.60;;
51971;SDS011;37991;49.662;10.060;2022-10-16T09:15:53;2.25;;;1.52;;
51971;SDS011;37991;49.662;10.060;2022-10-16T09:18:29;4.80;;;2.05;;
51971;SDS011;37991;49.662;10.060;2022-10-16T09:21:10;2.97;;;1.63;;
51971;SDS011;37991;49.662;10.060;2022-10-16T09:23:43;3.72;;;1.90;;
51971;SDS011;37991;49.662;10.060;2022-10-16T09:26:09;2.88;;;2.00;;
51971;SDS011;37991;49.662;10.060;2022-10-16T09:28:37;3.63;;;1.95;;
51971;SDS011;37991;49.662;10.060;2022-10-16T09:31:03;2.75;;;2.05;;
51971;SDS011;37991;49.662;10.060;2022-10-16T09:33:29;2.80;;;1.50;;
51971;SDS011;37991;49.662;10.060;2022-10-16T09:35:58;2.42;;;1.90;;
51971;SDS011;37991;49.662;10.060;2022-10-16T09:38:28;2.17;;;1.60;;
51971;SDS011;37991;49.662;10.060;2022-10-16T09:40:58;1.58;;;1.40;;
51971;SDS011;37991;49.662;10.060;2022-10-16T09:43:38;2.17;;;1.60;;
51971;SDS011;37991;49.662;10.060;2022-10-16T09:46:07;2.75;;;1.63;;
51971;SDS011;37991;49.662;10.060;2022-10-16T09:48:47;2.03;;;1.45;;
51971;SDS011;37991;49.662;10.060;2022-10-16T09:56:35;5.97;;;1.70;;
51971;SDS011;37991;49.662;10.060;2022-10-16T09:59:08;3.15;;;2.00;;
51971;SDS011;37991;49.662;10.060;2022-10-16T10:01:44;2.65;;;1.67;;
51971;SDS011;37991;49.662;10.060;2022-10-16T10:04:12;3.80;;;2.10;;
51971;SDS011;37991;49.662;10.060;2022-10-16T10:06:42;2.60;;;1.98;;
51971;SDS011;37991;49.662;10.060;2022-10-16T10:09:17;4.30;;;1.80;;
51971;SDS011;37991;49.662;10.060;2022-10-16T10:11:58;3.28;;;1.77;;
51971;SDS011;37991;49.662;10.060;2022-10-16T10:19:36;3.57;;;1.83;;
51971;SDS011;37991;49.662;10.060;2022-10-16T10:32:59;2.67;;;1.75;;
51971;SDS011;37991;49.662;10.060;2022-10-16T10:35:31;3.53;;;1.70;;
51971;SDS011;37991;49.662;10.060;2022-10-16T10:38:16;1.50;;;1.20;;
51971;SDS011;37991;49.662;10.060;2022-10-16T10:55:45;5.65;;;2.00;;
51971;SDS011;37991;49.662;10.060;2022-10-16T11:00:56;4.25;;;1.92;;
51971;SDS011;37991;49.662;10.060;2022-10-16T11:06:16;2.47;;;1.60;;
51971;SDS011;37991;49.662;10.060;2022-10-16T11:08:57;2.42;;;1.50;;
51971;SDS011;37991;49.662;10.060;2022-10-16T11:11:56;3.95;;;1.70;;
51971;SDS011;37991;49.662;10.060;2022-10-16T11:14:28;7.07;;;1.55;;
51971;SDS011;37991;49.662;10.060;2022-10-16T11:17:25;3.35;;;1.80;;
51971;SDS011;37991;49.662;10.060;2022-10-16T11:20:05;5.07;;;1.67;;
51971;SDS011;37991;49.662;10.060;2022-10-16T11:22:48;1.55;;;1.40;;
51971;SDS011;37991;49.662;10.060;2022-10-16T11:25:21;3.47;;;1.20;;
51971;SDS011;37991;49.662;10.060;2022-10-16T11:30:39;1.27;;;1.10;;
51971;SDS011;37991;49.662;10.060;2022-10-16T11:38:31;2.90;;;1.40;;
51971;SDS011;37991;49.662;10.060;2022-10-16T11:43:45;2.67;;;1.50;;
51971;SDS011;37991;49.662;10.060;2022-10-16T11:46:18;3.67;;;1.50;;
51971;SDS011;37991;49.662;10.060;2022-10-16T11:48:51;2.28;;;1.35;;
51971;SDS011;37991;49.662;10.060;2022-10-16T11:54:32;2.90;;;1.65;;
51971;SDS011;37991;49.662;10.060;2022-10-16T11:57:01;2.10;;;1.38;;
51971;SDS011;37991;49.662;10.060;2022-10-16T11:59:42;5.45;;;1.77;;
51971;SDS011;37991;49.662;10.060;2022-10-16T12:05:06;2.10;;;1.60;;
51971;SDS011;37991;49.662;10.060;2022-10-16T12:07:47;4.10;;;1.40;;
51971;SDS011;37991;49.662;10.060;2022-10-16T12:10:20;1.60;;;1.10;;
51971;SDS011;37991;49.662;10.060;2022-10-16T12:12:50;2.13;;;1.25;;
51971;SDS011;37991;49.662;10.060;2022-10-16T12:15:26;3.22;;;1.30;;
51971;SDS011;37991;49.662;10.060;2022-10-16T12:17:54;2.67;;;1.30;;
51971;SDS011;37991;49.662;10.060;2022-10-16T12:20:27;2.50;;;1.13;;
51971;SDS011;37991;49.662;10.060;2022-10-16T12:22:56;2.75;;;1.27;;
51971;SDS011;37991;49.662;10.060;2022-10-16T12:25:26;2.72;;;1.20;;
51971;SDS011;37991;49.662;10.060;2022-10-16T12:30:40;1.27;;;0.98;;
51971;SDS011;37991;49.662;10.060;2022-10-16T12:35:50;3.90;;;0.98;;
51971;SDS011;37991;49.662;10.060;2022-10-16T12:40:46;2.30;;;0.90;;
51971;SDS011;37991;49.662;10.060;2022-10-16T12:43:24;3.47;;;1.10;;
51971;SDS011;37991;49.662;10.060;2022-10-16T12:45:59;2.90;;;0.98;;
51971;SDS011;37991;49.662;10.060;2022-10-16T12:48:47;1.70;;;1.08;;
51971;SDS011;37991;49.662;10.060;2022-10-16T12:54:03;1.90;;;0.90;;
51971;SDS011;37991;49.662;10.060;2022-10-16T12:59:10;1.27;;;0.90;;
51971;SDS011;37991;49.662;10.060;2022-10-16T13:20:51;1.38;;;1.20;;
51971;SDS011;37991;49.662;10.060;2022-10-16T13:23:23;8.70;;;1.08;;
51971;SDS011;37991;49.662;10.060;2022-10-16T13:29:01;1.50;;;0.93;;
51971;SDS011;37991;49.662;10.060;2022-10-16T13:31:26;1.20;;;0.90;;
51971;SDS011;37991;49.662;10.060;2022-10-16T13:33:55;3.45;;;1.10;;
51971;SDS011;37991;49.662;10.060;2022-10-16T13:41:39;2.83;;;2.22;;
51971;SDS011;37991;49.662;10.060;2022-10-16T13:44:08;2.85;;;1.73;;
51971;SDS011;37991;49.662;10.060;2022-10-16T13:46:40;4.88;;;1.40;;
51971;SDS011;37991;49.662;10.060;2022-10-16T13:49:11;2.40;;;1.58;;
51971;SDS011;37991;49.662;10.060;2022-10-16T13:51:38;2.13;;;1.13;;
51971;SDS011;37991;49.662;10.060;2022-10-16T13:54:04;4.60;;;1.70;;
51971;SDS011;37991;49.662;10.060;2022-10-16T13:56:30;2.88;;;1.25;;
51971;SDS011;37991;49.662;10.060;2022-10-16T13:59:04;3.28;;;1.20;;
51971;SDS011;37991;49.662;10.060;2022-10-16T14:01:34;5.57;;;1.48;;
51971;SDS011;37991;49.662;10.060;2022-10-16T14:04:02;2.55;;;1.10;;
51971;SDS011;37991;49.662;10.060;2022-10-16T14:06:30;1.63;;;1.10;;
51971;SDS011;37991;49.662;10.060;2022-10-16T14:09:12;1.42;;;1.00;;
51971;SDS011;37991;49.662;10.060;2022-10-16T14:11:46;1.13;;;0.73;;
51971;SDS011;37991;49.662;10.060;2022-10-16T14:14:14;4.68;;;1.10;;
51971;SDS011;37991;49.662;10.060;2022-10-16T14:16:40;4.63;;;1.40;;
51971;SDS011;37991;49.662;10.060;2022-10-16T14:21:46;1.23;;;1.05;;
51971;SDS011;37991;49.662;10.060;2022-10-16T14:24:13;5.63;;;1.05;;
51971;SDS011;37991;49.662;10.060;2022-10-16T14:26:47;6.75;;;1.40;;
51971;SDS011;37991;49.662;10.060;2022-10-16T14:29:15;4.05;;;1.27;;
51971;SDS011;37991;49.662;10.060;2022-10-16T14:31:43;4.95;;;1.30;;
51971;SDS011;37991;49.662;10.060;2022-10-16T14:34:30;1.45;;;1.30;;
51971;SDS011;37991;49.662;10.060;2022-10-16T14:39:49;5.82;;;1.42;;
51971;SDS011;37991;49.662;10.060;2022-10-16T14:42:19;3.63;;;1.20;;
51971;SDS011;37991;49.662;10.060;2022-10-16T14:44:48;4.10;;;1.45;;
51971;SDS011;37991;49.662;10.060;2022-10-16T14:47:18;3.42;;;1.20;;
51971;SDS011;37991;49.662;10.060;2022-10-16T14:49:47;7.00;;;1.50;;
51971;SDS011;37991;49.662;10.060;2022-10-16T14:52:13;3.42;;;1.20;;
51971;SDS011;37991;49.662;10.060;2022-10-16T14:54:39;1.38;;;1.10;;
51971;SDS011;37991;49.662;10.060;2022-10-16T14:57:05;4.28;;;1.42;;
51971;SDS011;37991;49.662;10.060;2022-10-16T14:59:40;2.70;;;1.27;;
51971;SDS011;37991;49.662;10.060;2022-10-16T15:05:25;1.77;;;1.08;;
51971;SDS011;37991;49.662;10.060;2022-10-16T15:07:52;2.60;;;1.33;;
51971;SDS011;37991;49.662;10.060;2022-10-16T15:10:20;3.30;;;1.80;;
51971;SDS011;37991;49.662;10.060;2022-10-16T15:12:47;2.97;;;1.00;;
51971;SDS011;37991;49.662;10.060;2022-10-16T15:17:47;3.65;;;1.33;;
51971;SDS011;37991;49.662;10.060;2022-10-16T15:20:13;7.07;;;1.23;;
51971;SDS011;37991;49.662;10.060;2022-10-16T15:22:39;6.05;;;1.35;;
51971;SDS011;37991;49.662;10.060;2022-10-16T15:25:17;2.63;;;1.05;;
51971;SDS011;37991;49.662;10.060;2022-10-16T15:27:49;12.18;;;2.75;;
51971;SDS011;37991;49.662;10.060;2022-10-16T15:30:14;6.90;;;1.65;;
51971;SDS011;37991;49.662;10.060;2022-10-16T15:32:40;5.47;;;1.30;;
51971;SDS011;37991;49.662;10.060;2022-10-16T15:35:08;8.27;;;1.40;;
51971;SDS011;37991;49.662;10.060;2022-10-16T15:37:34;3.40;;;1.52;;
51971;SDS011;37991;49.662;10.060;2022-10-16T15:39:59;7.00;;;1.20;;
51971;SDS011;37991;49.662;10.060;2022-10-16T15:42:24;3.58;;;1.38;;
51971;SDS011;37991;49.662;10.060;2022-10-16T15:44:50;6.28;;;1.20;;
51971;SDS011;37991;49.662;10.060;2022-10-16T15:47:15;4.18;;;1.45;;
51971;SDS011;37991;49.662;10.060;2022-10-16T15:49:41;10.18;;;1.33;;
51971;SDS011;37991;49.662;10.060;2022-10-16T15:52:06;1.73;;;1.17;;
51971;SDS011;37991;49.662;10.060;2022-10-16T15:54:32;12.95;;;1.33;;
51971;SDS011;37991;49.662;10.060;2022-10-16T15:56:57;1.83;;;1.30;;
51971;SDS011;37991;49.662;10.060;2022-10-16T15:59:23;4.90;;;1.30;;
51971;SDS011;37991;49.662;10.060;2022-10-16T16:01:48;6.95;;;1.40;;
51971;SDS011;37991;49.662;10.060;2022-10-16T16:04:13;2.78;;;1.17;;
51971;SDS011;37991;49.662;10.060;2022-10-16T16:06:39;4.22;;;1.13;;
51971;SDS011;37991;49.662;10.060;2022-10-16T16:09:09;5.38;;;1.20;;
51971;SDS011;37991;49.662;10.060;2022-10-16T16:11:35;3.45;;;1.13;;
51971;SDS011;37991;49.662;10.060;2022-10-16T16:14:04;5.78;;;1.58;;
51971;SDS011;37991;49.662;10.060;2022-10-16T16:16:35;2.58;;;1.60;;
51971;SDS011;37991;49.662;10.060;2022-10-16T16:19:03;4.88;;;1.92;;
51971;SDS011;37991;49.662;10.060;2022-10-16T16:21:30;6.95;;;1.63;;
51971;SDS011;37991;49.662;10.060;2022-10-16T16:23:55;6.95;;;1.67;;
51971;SDS011;37991;49.662;10.060;2022-10-16T16:26:25;4.43;;;1.45;;
51971;SDS011;37991;49.662;10.060;2022-10-16T16:28:52;3.85;;;1.00;;
51971;SDS011;37991;49.662;10.060;2022-10-16T16:31:19;7.95;;;1.30;;
51971;SDS011;37991;49.662;10.060;2022-10-16T16:33:45;5.07;;;1.33;;
51971;SDS011;37991;49.662;10.060;2022-10-16T16:36:10;2.47;;;1.30;;
51971;SDS011;37991;49.662;10.060;2022-10-16T16:38:37;6.93;;;1.60;;
51971;SDS011;37991;49.662;10.060;2022-10-16T16:41:16;8.75;;;1.73;;
51971;SDS011;37991;49.662;10.060;2022-10-16T16:44:03;3.70;;;1.20;;
51971;SDS011;37991;49.662;10.060;2022-10-16T16:46:30;7.68;;;1.25;;
51971;SDS011;37991;49.662;10.060;2022-10-16T16:48:57;6.63;;;1.33;;
51971;SDS011;37991;49.662;10.060;2022-10-16T16:51:24;8.43;;;1.58;;
51971;SDS011;37991;49.662;10.060;2022-10-16T16:53:50;3.67;;;1.42;;
51971;SDS011;37991;49.662;10.060;2022-10-16T16:56:18;2.20;;;1.20;;
51971;SDS011;37991;49.662;10.060;2022-10-16T16:58:44;5.78;;;1.67;;